• Join FlightAware (Why Join?)
  • Login
  • US Flag 
10:43PM EDT


 

Airport Tracker/Info


-or-


 

Live Flight TrackerFlight Track Log ✈ EJM826 ✈ 26-Jul-2013 ✈ KSAN - KTRK

Flight Track Log - Related Links

Times and Time Zones

All times are in EDT time to prevent confusion due to time zone crossing. See the EJM826 flight status page for this flight to view local times or setup timezone preferences in your user account.

Time Position Orientation Groundspeed Altitude Reporting Facility
EDT Latitude Longitude Course Direction KTS MPH feet Rate Location/Type
04:42PM 32.7519 -117.2269 296° West 168 193 1,800  Level Los Angeles Center
04:43PM 32.7819 -117.2769 306° West 180 207 4,000 1,920 Climbing Los Angeles Center
04:44PM 32.8161 -117.3317 307° West 209 241 5,900 1,980 Climbing Los Angeles Center
04:45PM 32.8758 -117.4147 311° West 267 307 8,200 2,220 Climbing Los Angeles Center
04:46PM 32.9278 -117.4861 311° West 281 323 10,600 1,980 Climbing Los Angeles Center
04:47PM 33.2046 -117.9282 296° West  Level FlightAware Approximate
04:47PM 32.9828 -117.5614 311° West 296 341 12,400  Level Los Angeles Center
04:48PM 33.0408 -117.6403 311° West 312 359 14,500 1,920 Climbing Los Angeles Center
04:49PM 33.0992 -117.7214 311° West 320 368 16,400 1,620 Climbing Los Angeles Center
04:50PM 33.1725 -117.8228 311° West 332 382 18,300 1,620 Climbing Los Angeles Center
04:51PM 33.2181 -117.9503 293° West 346 398 20,200 1,560 Climbing Los Angeles Center
04:52PM 33.2989 -118.0133 327° Northwest 357 411 21,600 900 Climbing Los Angeles Center
04:53PM 33.3967 -118.0619 337° Northwest 375 432 22,100 720 Climbing Los Angeles Center
04:54PM 33.4983 -118.1106 338° Northwest 389 448 23,200 960 Climbing Los Angeles Center
04:55PM 33.6022 -118.1603 338° Northwest 400 460 24,100 960 Climbing Los Angeles Center
04:56PM 33.7281 -118.2192 339° North 410 472 25,200 960 Climbing Los Angeles Center
04:57PM 33.8347 -118.2706 338° Northwest 428 493 26,100 720 Climbing Los Angeles Center
04:58PM 33.9419 -118.3253 337° Northwest 427 491 26,800 840 Climbing Los Angeles Center
04:59PM 34.0742 -118.3897 338° Northwest 430 495 27,900 900 Climbing Los Angeles Center
05:00PM 34.1864 -118.4453 338° Northwest 435 501 28,700 660 Climbing Los Angeles Center
05:01PM 34.3022 -118.4875 343° North 436 502 29,300 480 Climbing Los Angeles Center
05:02PM 34.4217 -118.5236 346° North 440 506 29,700 300 Climbing Los Angeles Center
05:03PM 34.5419 -118.5611 346° North 446 513 30,000 120 Climbing Los Angeles Center
05:04PM 34.6653 -118.6000 345° North 455 524 30,000  Level Los Angeles Center
05:06PM 34.7911 -118.6389 346° North 466 536 30,000  Level Los Angeles Center
05:07PM 34.9386 -118.6861 345° North 472 543 30,000  Level Los Angeles Center
05:08PM 35.0661 -118.7253 346° North 475 547 30,000 120 Level Los Angeles Center
05:09PM 35.1953 -118.7636 346° North 477 549 30,300 720 Climbing Los Angeles Center
05:10PM 35.3464 -118.8114 346° North 473 544 31,500 780 Climbing Los Angeles Center
05:11PM 35.4700 -118.8511 345° North 466 536 32,000 240 Climbing Los Angeles Center
05:12PM 35.5961 -118.8914 345° North 465 535 32,000  Level Los Angeles Center
05:13PM 35.7269 -118.9350 345° North 476 548 32,000  Level Los Angeles Center
05:14PM 35.8586 -118.9761 346° North 485 558 32,000  Level Los Angeles Center
05:15PM 36.0147 -119.0261 345° North 485 558 32,000  Level Los Angeles Center
05:16PM 36.1456 -119.0694 345° North 487 560 32,000  Level Los Angeles Center
05:17PM 36.2517 -119.1047 345° North 490 564 32,000  Level Los Angeles Center
05:18PM 36.4108 -119.1581 345° North 494 568 32,000  Level Los Angeles Center
05:19PM 36.5433 -119.2000 346° North 494 568 32,000  Level Los Angeles Center
05:20PM 36.6739 -119.2417 346° North 495 570 32,000  Level Oakland Center
05:21PM 36.8333 -119.2928 346° North 494 568 32,000  Level Oakland Center
05:22PM 36.9675 -119.3358 346° North 497 572 32,000  Level Oakland Center
05:23PM 37.1028 -119.3817 345° North 503 579 32,000  Level Oakland Center
05:24PM 37.2381 -119.4258 345° North 503 579 32,000  Level Oakland Center
05:25PM 37.3886 -119.4753 345° North 504 580 32,000  Level Oakland Center
05:26PM 37.5244 -119.5208 345° North 505 581 32,000  Level Oakland Center
05:27PM 37.6606 -119.5664 345° North 506 582 32,000 -660 Level Oakland Center
05:28PM 37.7936 -119.6114 345° North 499 574 30,700 -1,620 Descending Oakland Center
05:29PM 37.9244 -119.6569 345° North 493 567 28,800 -1,860 Descending Oakland Center
05:30PM 38.0547 -119.6989 346° North 486 559 26,900 -1,920 Descending Oakland Center
05:31PM 38.1758 -119.7431 344° North 465 535 24,900 -2,100 Descending Oakland Center
05:32PM 38.3211 -119.7928 345° North 453 521 22,600 -2,760 Descending Oakland Center
05:33PM 38.4458 -119.8333 346° North 461 531 19,300 -3,180 Descending Oakland Center
05:34PM 38.5711 -119.8758 345° North 466 536 16,200 -2,640 Descending Oakland Center
05:35PM 38.6853 -119.9161 345° North 444 511 14,000 -1,680 Descending Oakland Center
05:36PM 38.7914 -119.9536 345° North 408 470 12,800 -600 Descending Oakland Center
05:37PM 38.8950 -119.9925 344° North 398 458 12,800  Level Oakland Center
05:38PM 38.9897 -120.0289 343° North 372 428 12,800 -300 Level Oakland Center
05:40PM 39.1006 -120.0819 340° North 357 411 12,300 -540 Descending Oakland Center
05:41PM 39.1894 -120.1217 341° North 343 395 11,800 -540 Descending Oakland Center